KLM1290 EKBI-EHAM
Flight info
| Callsign | KLM1290 |
|---|---|
| Flight time | 0h 55m |
| Altitude | 34000 |
| Route | MIKRO DCT IPSUB P174 KUBAT T200 BLUFA |
| Aircraft | A21N/M-SDE2E3FGHIRWXY/LB1 |
Departure
| Time | 2026-05-07 12:22 |
|---|---|
| Airport | Billund Airport (EKBI) |
Arrival
| Time | 2026-05-07 13:17 |
|---|---|
| Airport | Amsterdam Airport Schiphol (EHAM) |
| Time | Latitude | Longitude | Altitude | Speed | Heading |
|---|---|---|---|---|---|
| 2026-05-07 12:12 | 55.74529 | 9.14882 | 231 ft | 0 kts | 357° |
| 2026-05-07 12:14 | 55.74514 | 9.14883 | 233 ft | 4 kts | 357° |
| 2026-05-07 12:14 | 55.74497 | 9.14884 | 234 ft | 4 kts | 2° |
| 2026-05-07 12:14 | 55.74471 | 9.14875 | 234 ft | 4 kts | 33° |
| 2026-05-07 12:15 | 55.74456 | 9.14843 | 234 ft | 4 kts | 79° |
| 2026-05-07 12:15 | 55.74454 | 9.14822 | 234 ft | 1 kts | 88° |
| 2026-05-07 12:15 | 55.74454 | 9.14821 | 234 ft | 0 kts | 88° |
| 2026-05-07 12:17 | 55.74454 | 9.14822 | 234 ft | 1 kts | 88° |
| 2026-05-07 12:18 | 55.74455 | 9.14858 | 232 ft | 4 kts | 87° |
| 2026-05-07 12:18 | 55.74450 | 9.14925 | 231 ft | 8 kts | 119° |
| 2026-05-07 12:18 | 55.74377 | 9.14980 | 234 ft | 15 kts | 173° |
| 2026-05-07 12:18 | 55.74250 | 9.14996 | 231 ft | 21 kts | 172° |
| 2026-05-07 12:19 | 55.74205 | 9.15226 | 233 ft | 24 kts | 87° |
| 2026-05-07 12:19 | 55.74210 | 9.15551 | 236 ft | 29 kts | 86° |
| 2026-05-07 12:19 | 55.74224 | 9.15932 | 238 ft | 33 kts | 86° |
| 2026-05-07 12:19 | 55.74239 | 9.16359 | 240 ft | 36 kts | 87° |
| 2026-05-07 12:20 | 55.74251 | 9.16821 | 243 ft | 39 kts | 88° |
| 2026-05-07 12:20 | 55.74257 | 9.17069 | 245 ft | 17 kts | 88° |
| 2026-05-07 12:20 | 55.74262 | 9.17252 | 246 ft | 18 kts | 86° |
| 2026-05-07 12:20 | 55.74272 | 9.17507 | 248 ft | 24 kts | 86° |
| 2026-05-07 12:21 | 55.74284 | 9.17828 | 250 ft | 29 kts | 86° |
| 2026-05-07 12:21 | 55.74227 | 9.18137 | 252 ft | 28 kts | 161° |
| 2026-05-07 12:21 | 55.74126 | 9.18019 | 251 ft | 18 kts | 267° |
| 2026-05-07 12:21 | 55.74109 | 9.17472 | 246 ft | 82 kts | 267° |
| 2026-05-07 12:22 | 55.74062 | 9.15974 | 235 ft | 160 kts | 267° |
| 2026-05-07 12:22 | 55.73990 | 9.13725 | 519 ft | 193 kts | 266° |
| 2026-05-07 12:22 | 55.73954 | 9.11360 | 1540 ft | 192 kts | 279° |
| 2026-05-07 12:22 | 55.74573 | 9.09265 | 2483 ft | 199 kts | 307° |
| 2026-05-07 12:23 | 55.75560 | 9.07273 | 2886 ft | 231 kts | 311° |
| 2026-05-07 12:23 | 55.76709 | 9.05071 | 3485 ft | 251 kts | 311° |
| 2026-05-07 12:23 | 55.77893 | 9.02729 | 4384 ft | 257 kts | 309° |
| 2026-05-07 12:23 | 55.78997 | 9.00210 | 5272 ft | 261 kts | 298° |
| 2026-05-07 12:24 | 55.79535 | 8.97129 | 6170 ft | 264 kts | 270° |
| 2026-05-07 12:24 | 55.79164 | 8.93951 | 7029 ft | 268 kts | 242° |
| 2026-05-07 12:24 | 55.78112 | 8.91257 | 7896 ft | 271 kts | 230° |
| 2026-05-07 12:24 | 55.76877 | 8.88672 | 8740 ft | 278 kts | 229° |
| 2026-05-07 12:25 | 55.75599 | 8.86053 | 9606 ft | 284 kts | 229° |
| 2026-05-07 12:25 | 55.74291 | 8.83373 | 10416 ft | 293 kts | 229° |
| 2026-05-07 12:25 | 55.72905 | 8.80530 | 10783 ft | 316 kts | 229° |
| 2026-05-07 12:25 | 55.71419 | 8.77476 | 11145 ft | 337 kts | 229° |
| 2026-05-07 12:26 | 55.69860 | 8.74272 | 11838 ft | 347 kts | 229° |
| 2026-05-07 12:26 | 55.68276 | 8.71017 | 12738 ft | 350 kts | 230° |
| 2026-05-07 12:26 | 55.66678 | 8.67739 | 13683 ft | 353 kts | 230° |
| 2026-05-07 12:26 | 55.65044 | 8.64391 | 14526 ft | 356 kts | 230° |
| 2026-05-07 12:27 | 55.63441 | 8.61110 | 15296 ft | 360 kts | 230° |
| 2026-05-07 12:27 | 55.61792 | 8.57738 | 16021 ft | 365 kts | 230° |
| 2026-05-07 12:27 | 55.60119 | 8.54323 | 16746 ft | 369 kts | 230° |
| 2026-05-07 12:27 | 55.58426 | 8.50872 | 17494 ft | 372 kts | 230° |
| 2026-05-07 12:28 | 55.56721 | 8.47402 | 18217 ft | 377 kts | 230° |
| 2026-05-07 12:28 | 55.54992 | 8.43888 | 18832 ft | 381 kts | 230° |
| 2026-05-07 12:28 | 55.53248 | 8.40349 | 19432 ft | 384 kts | 230° |
| 2026-05-07 12:28 | 55.51484 | 8.36776 | 20045 ft | 387 kts | 230° |
| 2026-05-07 12:29 | 55.49702 | 8.33170 | 20638 ft | 391 kts | 230° |
| 2026-05-07 12:29 | 55.47901 | 8.29532 | 21237 ft | 395 kts | 230° |
| 2026-05-07 12:29 | 55.46089 | 8.25877 | 21828 ft | 398 kts | 230° |
| 2026-05-07 12:29 | 55.44260 | 8.22193 | 22409 ft | 401 kts | 230° |
| 2026-05-07 12:30 | 55.42355 | 8.18565 | 22950 ft | 405 kts | 223° |
| 2026-05-07 12:30 | 55.40000 | 8.15816 | 23458 ft | 411 kts | 207° |
| 2026-05-07 12:30 | 55.37340 | 8.13876 | 23933 ft | 415 kts | 200° |
| 2026-05-07 12:30 | 55.34562 | 8.12366 | 24335 ft | 420 kts | 197° |
| 2026-05-07 12:31 | 55.31729 | 8.11047 | 24731 ft | 423 kts | 196° |
| 2026-05-07 12:31 | 55.28858 | 8.09760 | 25133 ft | 426 kts | 196° |
| 2026-05-07 12:31 | 55.25983 | 8.08442 | 25530 ft | 429 kts | 196° |
| 2026-05-07 12:31 | 55.23093 | 8.07063 | 25896 ft | 432 kts | 197° |
| 2026-05-07 12:32 | 55.20221 | 8.05644 | 26271 ft | 434 kts | 197° |
| 2026-05-07 12:32 | 55.17308 | 8.04172 | 26639 ft | 437 kts | 197° |
| 2026-05-07 12:32 | 55.14383 | 8.02674 | 26994 ft | 440 kts | 197° |
| 2026-05-07 12:32 | 55.11437 | 8.01160 | 27350 ft | 442 kts | 197° |
| 2026-05-07 12:33 | 55.05496 | 7.98110 | 28027 ft | 447 kts | 197° |
| 2026-05-07 12:33 | 55.02501 | 7.96579 | 28360 ft | 450 kts | 197° |
| 2026-05-07 12:33 | 54.99458 | 7.95228 | 28662 ft | 453 kts | 193° |
| 2026-05-07 12:34 | 54.96364 | 7.94079 | 28954 ft | 456 kts | 192° |
| 2026-05-07 12:34 | 54.93260 | 7.92998 | 29409 ft | 455 kts | 191° |
| 2026-05-07 12:34 | 54.90152 | 7.91955 | 29865 ft | 454 kts | 191° |
| 2026-05-07 12:34 | 54.87053 | 7.90933 | 30269 ft | 453 kts | 191° |
| 2026-05-07 12:35 | 54.83954 | 7.89916 | 30608 ft | 453 kts | 191° |
| 2026-05-07 12:35 | 54.80857 | 7.88899 | 30928 ft | 453 kts | 191° |
| 2026-05-07 12:35 | 54.77764 | 7.87879 | 31247 ft | 453 kts | 191° |
| 2026-05-07 12:35 | 54.74663 | 7.86855 | 31561 ft | 453 kts | 190° |
| 2026-05-07 12:36 | 54.71566 | 7.85831 | 31816 ft | 454 kts | 190° |
| 2026-05-07 12:36 | 54.68455 | 7.84803 | 32112 ft | 454 kts | 190° |
| 2026-05-07 12:36 | 54.65351 | 7.83776 | 32433 ft | 453 kts | 190° |
| 2026-05-07 12:36 | 54.62255 | 7.82753 | 32739 ft | 453 kts | 190° |
| 2026-05-07 12:37 | 54.59151 | 7.81729 | 33028 ft | 453 kts | 190° |
| 2026-05-07 12:37 | 54.56055 | 7.80709 | 33314 ft | 453 kts | 190° |
| 2026-05-07 12:37 | 54.52965 | 7.79692 | 33599 ft | 452 kts | 189° |
| 2026-05-07 12:37 | 54.49907 | 7.78688 | 33860 ft | 452 kts | 189° |
| 2026-05-07 12:38 | 54.46811 | 7.77673 | 34087 ft | 453 kts | 189° |
| 2026-05-07 12:38 | 54.43717 | 7.76660 | 34106 ft | 452 kts | 189° |
| 2026-05-07 12:38 | 54.37538 | 7.74642 | 34108 ft | 452 kts | 189° |
| 2026-05-07 12:39 | 54.31361 | 7.72631 | 34111 ft | 452 kts | 189° |
| 2026-05-07 12:39 | 54.25187 | 7.70627 | 34107 ft | 452 kts | 189° |
| 2026-05-07 12:40 | 54.19026 | 7.68633 | 34099 ft | 450 kts | 189° |
| 2026-05-07 12:40 | 54.12951 | 7.66041 | 34103 ft | 451 kts | 201° |
| 2026-05-07 12:41 | 54.07424 | 7.60991 | 34103 ft | 451 kts | 211° |
| 2026-05-07 12:41 | 54.02092 | 7.55331 | 34101 ft | 452 kts | 211° |
| 2026-05-07 12:42 | 53.96769 | 7.49667 | 34099 ft | 450 kts | 212° |
| 2026-05-07 12:42 | 53.91462 | 7.44041 | 34094 ft | 449 kts | 211° |
| 2026-05-07 12:43 | 53.86155 | 7.38433 | 34089 ft | 449 kts | 211° |
| 2026-05-07 12:43 | 53.80843 | 7.32838 | 34086 ft | 450 kts | 211° |
| 2026-05-07 12:44 | 53.75513 | 7.27240 | 34090 ft | 450 kts | 211° |
| 2026-05-07 12:44 | 53.70228 | 7.21708 | 34086 ft | 449 kts | 211° |
| 2026-05-07 12:45 | 53.64915 | 7.16163 | 34082 ft | 449 kts | 211° |
| 2026-05-07 12:45 | 53.59599 | 7.10636 | 34079 ft | 449 kts | 211° |
| 2026-05-07 12:46 | 53.54277 | 7.05113 | 34078 ft | 449 kts | 211° |
| 2026-05-07 12:46 | 53.48989 | 6.99642 | 34078 ft | 443 kts | 211° |
| 2026-05-07 12:47 | 53.43753 | 6.94241 | 34081 ft | 441 kts | 211° |
| 2026-05-07 12:47 | 53.38514 | 6.88852 | 33990 ft | 441 kts | 211° |
| 2026-05-07 12:48 | 53.35888 | 6.86158 | 33598 ft | 441 kts | 211° |
| 2026-05-07 12:48 | 53.33259 | 6.83465 | 33057 ft | 446 kts | 211° |
| 2026-05-07 12:48 | 53.30629 | 6.80774 | 32144 ft | 451 kts | 211° |
| 2026-05-07 12:48 | 53.27934 | 6.78021 | 31101 ft | 457 kts | 211° |
| 2026-05-07 12:49 | 53.25203 | 6.75236 | 30125 ft | 460 kts | 211° |
| 2026-05-07 12:49 | 53.22469 | 6.72452 | 29256 ft | 459 kts | 211° |
| 2026-05-07 12:49 | 53.19758 | 6.69695 | 28571 ft | 453 kts | 211° |
| 2026-05-07 12:49 | 53.17075 | 6.66971 | 27913 ft | 447 kts | 211° |
| 2026-05-07 12:50 | 53.14425 | 6.64284 | 27221 ft | 443 kts | 211° |
| 2026-05-07 12:50 | 53.11813 | 6.61639 | 26657 ft | 436 kts | 211° |
| 2026-05-07 12:50 | 53.09240 | 6.59037 | 26116 ft | 430 kts | 211° |
| 2026-05-07 12:50 | 53.06695 | 6.56469 | 25570 ft | 424 kts | 211° |
| 2026-05-07 12:51 | 53.04174 | 6.53927 | 25009 ft | 419 kts | 211° |
| 2026-05-07 12:51 | 53.01699 | 6.51436 | 24467 ft | 414 kts | 211° |
| 2026-05-07 12:51 | 52.99251 | 6.48975 | 23910 ft | 409 kts | 211° |
| 2026-05-07 12:51 | 52.96828 | 6.46542 | 23344 ft | 405 kts | 212° |
| 2026-05-07 12:52 | 52.94433 | 6.44140 | 22779 ft | 399 kts | 212° |
| 2026-05-07 12:52 | 52.92082 | 6.41786 | 22268 ft | 392 kts | 212° |
| 2026-05-07 12:52 | 52.89767 | 6.39470 | 21745 ft | 386 kts | 211° |
| 2026-05-07 12:52 | 52.87486 | 6.37191 | 21226 ft | 380 kts | 211° |
| 2026-05-07 12:53 | 52.85242 | 6.34921 | 20711 ft | 375 kts | 214° |
| 2026-05-07 12:53 | 52.83268 | 6.32177 | 20230 ft | 369 kts | 229° |
| 2026-05-07 12:53 | 52.81713 | 6.28896 | 19745 ft | 364 kts | 235° |
| 2026-05-07 12:53 | 52.80266 | 6.25469 | 19250 ft | 361 kts | 236° |
| 2026-05-07 12:54 | 52.78853 | 6.22065 | 18748 ft | 358 kts | 236° |
| 2026-05-07 12:54 | 52.77448 | 6.18691 | 18248 ft | 355 kts | 236° |
| 2026-05-07 12:54 | 52.76049 | 6.15351 | 17723 ft | 352 kts | 236° |
| 2026-05-07 12:54 | 52.74661 | 6.12052 | 17246 ft | 348 kts | 236° |
| 2026-05-07 12:55 | 52.73726 | 6.09835 | 16924 ft | 345 kts | 236° |
| 2026-05-07 12:55 | 52.72377 | 6.06641 | 16456 ft | 343 kts | 235° |
| 2026-05-07 12:55 | 52.71019 | 6.03434 | 15994 ft | 339 kts | 235° |
| 2026-05-07 12:55 | 52.69672 | 6.00255 | 15529 ft | 336 kts | 235° |
| 2026-05-07 12:56 | 52.68335 | 5.97106 | 15064 ft | 334 kts | 236° |
| 2026-05-07 12:56 | 52.67006 | 5.93980 | 14596 ft | 332 kts | 236° |
| 2026-05-07 12:56 | 52.65682 | 5.90870 | 14137 ft | 330 kts | 235° |
| 2026-05-07 12:56 | 52.64367 | 5.87785 | 13653 ft | 329 kts | 235° |
| 2026-05-07 12:57 | 52.63058 | 5.84718 | 13176 ft | 326 kts | 235° |
| 2026-05-07 12:57 | 52.61762 | 5.81684 | 12713 ft | 322 kts | 235° |
| 2026-05-07 12:57 | 52.60478 | 5.78681 | 12281 ft | 319 kts | 235° |
| 2026-05-07 12:57 | 52.59203 | 5.75705 | 11840 ft | 316 kts | 235° |
| 2026-05-07 12:58 | 52.57943 | 5.72766 | 11415 ft | 314 kts | 235° |
| 2026-05-07 12:58 | 52.56708 | 5.69888 | 11238 ft | 300 kts | 235° |
| 2026-05-07 12:58 | 52.55537 | 5.67165 | 11146 ft | 286 kts | 235° |
| 2026-05-07 12:58 | 52.54393 | 5.64505 | 10814 ft | 285 kts | 234° |
| 2026-05-07 12:59 | 52.53247 | 5.61843 | 10445 ft | 286 kts | 234° |
| 2026-05-07 12:59 | 52.52098 | 5.59178 | 10084 ft | 284 kts | 234° |
| 2026-05-07 12:59 | 52.51035 | 5.56461 | 9698 ft | 282 kts | 241° |
| 2026-05-07 12:59 | 52.50157 | 5.53596 | 9303 ft | 280 kts | 244° |
| 2026-05-07 13:00 | 52.49331 | 5.50707 | 8892 ft | 280 kts | 244° |
| 2026-05-07 13:00 | 52.48510 | 5.47814 | 8503 ft | 279 kts | 244° |
| 2026-05-07 13:00 | 52.47689 | 5.44928 | 8118 ft | 278 kts | 244° |
| 2026-05-07 13:00 | 52.46875 | 5.42080 | 7718 ft | 275 kts | 244° |
| 2026-05-07 13:01 | 52.46064 | 5.39250 | 7338 ft | 273 kts | 244° |
| 2026-05-07 13:01 | 52.45259 | 5.36443 | 7122 ft | 271 kts | 244° |
| 2026-05-07 13:01 | 52.44456 | 5.33650 | 7079 ft | 271 kts | 244° |
| 2026-05-07 13:01 | 52.43651 | 5.30854 | 7074 ft | 272 kts | 244° |
| 2026-05-07 13:02 | 52.42842 | 5.28049 | 7074 ft | 272 kts | 244° |
| 2026-05-07 13:02 | 52.42035 | 5.25251 | 7071 ft | 272 kts | 244° |
| 2026-05-07 13:02 | 52.41226 | 5.22453 | 7072 ft | 271 kts | 244° |
| 2026-05-07 13:02 | 52.40416 | 5.19655 | 7072 ft | 272 kts | 244° |
| 2026-05-07 13:03 | 52.39606 | 5.16858 | 7070 ft | 273 kts | 244° |
| 2026-05-07 13:03 | 52.38792 | 5.14051 | 7072 ft | 273 kts | 244° |
| 2026-05-07 13:03 | 52.37977 | 5.11246 | 7072 ft | 273 kts | 244° |
| 2026-05-07 13:03 | 52.37159 | 5.08433 | 7074 ft | 273 kts | 244° |
| 2026-05-07 13:04 | 52.36343 | 5.05631 | 7070 ft | 273 kts | 244° |
| 2026-05-07 13:04 | 52.35527 | 5.02829 | 7076 ft | 273 kts | 244° |
| 2026-05-07 13:04 | 52.34710 | 5.00031 | 7074 ft | 273 kts | 244° |
| 2026-05-07 13:04 | 52.33891 | 4.97229 | 7073 ft | 273 kts | 244° |
| 2026-05-07 13:05 | 52.33075 | 4.94437 | 7077 ft | 273 kts | 244° |
| 2026-05-07 13:05 | 52.32217 | 4.91663 | 7070 ft | 272 kts | 235° |
| 2026-05-07 13:05 | 52.30884 | 4.89540 | 6916 ft | 267 kts | 210° |
| 2026-05-07 13:05 | 52.29145 | 4.88571 | 6454 ft | 266 kts | 188° |
| 2026-05-07 13:06 | 52.27320 | 4.88292 | 5931 ft | 267 kts | 183° |
| 2026-05-07 13:06 | 52.25442 | 4.88134 | 5429 ft | 267 kts | 182° |
| 2026-05-07 13:06 | 52.23585 | 4.87997 | 4931 ft | 267 kts | 182° |
| 2026-05-07 13:06 | 52.21727 | 4.87864 | 4441 ft | 267 kts | 182° |
| 2026-05-07 13:07 | 52.19879 | 4.87723 | 4129 ft | 265 kts | 182° |
| 2026-05-07 13:07 | 52.18066 | 4.87571 | 4075 ft | 265 kts | 182° |
| 2026-05-07 13:07 | 52.16230 | 4.87276 | 4065 ft | 265 kts | 194° |
| 2026-05-07 13:07 | 52.14621 | 4.85869 | 4073 ft | 265 kts | 223° |
| 2026-05-07 13:08 | 52.13609 | 4.83402 | 4074 ft | 264 kts | 251° |
| 2026-05-07 13:08 | 52.13332 | 4.80459 | 4076 ft | 265 kts | 269° |
| 2026-05-07 13:08 | 52.13560 | 4.77488 | 4076 ft | 265 kts | 287° |
| 2026-05-07 13:08 | 52.14169 | 4.74646 | 4073 ft | 265 kts | 291° |
| 2026-05-07 13:09 | 52.14834 | 4.71914 | 4061 ft | 248 kts | 292° |
| 2026-05-07 13:09 | 52.15466 | 4.69355 | 4074 ft | 243 kts | 292° |
| 2026-05-07 13:09 | 52.16102 | 4.66786 | 4063 ft | 245 kts | 292° |
| 2026-05-07 13:09 | 52.16751 | 4.64235 | 3734 ft | 243 kts | 294° |
| 2026-05-07 13:10 | 52.17196 | 4.61586 | 3212 ft | 243 kts | 277° |
| 2026-05-07 13:10 | 52.17321 | 4.58833 | 3047 ft | 244 kts | 273° |
| 2026-05-07 13:10 | 52.17385 | 4.56056 | 3042 ft | 245 kts | 272° |
| 2026-05-07 13:10 | 52.17443 | 4.53285 | 2572 ft | 245 kts | 272° |
| 2026-05-07 13:11 | 52.17494 | 4.50543 | 2114 ft | 241 kts | 272° |
| 2026-05-07 13:11 | 52.17526 | 4.47792 | 1865 ft | 242 kts | 272° |
| 2026-05-07 13:11 | 52.17546 | 4.45056 | 1952 ft | 241 kts | 272° |
| 2026-05-07 13:11 | 52.17736 | 4.42371 | 1984 ft | 237 kts | 292° |
| 2026-05-07 13:12 | 52.18660 | 4.40229 | 1990 ft | 231 kts | 324° |
| 2026-05-07 13:12 | 52.20110 | 4.39232 | 1982 ft | 227 kts | 356° |
| 2026-05-07 13:12 | 52.21637 | 4.39677 | 1995 ft | 225 kts | 29° |
| 2026-05-07 13:12 | 52.22771 | 4.41401 | 1996 ft | 227 kts | 61° |
| 2026-05-07 13:13 | 52.23156 | 4.43867 | 1995 ft | 228 kts | 91° |
| 2026-05-07 13:13 | 52.22887 | 4.46430 | 1997 ft | 232 kts | 101° |
| 2026-05-07 13:13 | 52.22534 | 4.49012 | 1992 ft | 233 kts | 100° |
| 2026-05-07 13:13 | 52.22218 | 4.51610 | 1994 ft | 233 kts | 97° |
| 2026-05-07 13:14 | 52.22103 | 4.54238 | 1976 ft | 231 kts | 83° |
| 2026-05-07 13:14 | 52.22452 | 4.56775 | 1986 ft | 229 kts | 68° |
| 2026-05-07 13:14 | 52.23178 | 4.58979 | 2016 ft | 211 kts | 56° |
| 2026-05-07 13:14 | 52.23967 | 4.60885 | 1896 ft | 197 kts | 56° |
| 2026-05-07 13:15 | 52.24687 | 4.62754 | 1607 ft | 192 kts | 57° |
| 2026-05-07 13:15 | 52.25378 | 4.64561 | 1331 ft | 187 kts | 54° |
| 2026-05-07 13:15 | 52.26057 | 4.66319 | 1088 ft | 178 kts | 56° |
| 2026-05-07 13:15 | 52.26689 | 4.67961 | 838 ft | 162 kts | 55° |
| 2026-05-07 13:16 | 52.27253 | 4.69423 | 644 ft | 145 kts | 55° |
| 2026-05-07 13:16 | 52.27764 | 4.70753 | 462 ft | 132 kts | 54° |
| 2026-05-07 13:16 | 52.28251 | 4.72016 | 286 ft | 132 kts | 55° |
| 2026-05-07 13:16 | 52.28740 | 4.73290 | 97 ft | 134 kts | 56° |
| 2026-05-07 13:17 | 52.29229 | 4.74559 | 3 ft | 120 kts | 58° |
| 2026-05-07 13:17 | 52.29592 | 4.75504 | 1 ft | 71 kts | 56° |
| 2026-05-07 13:17 | 52.29832 | 4.75850 | 1 ft | 14 kts | 29° |
| 2026-05-07 13:17 | 52.29911 | 4.75922 | 2 ft | 13 kts | 29° |
| 2026-05-07 13:18 | 52.29969 | 4.75975 | 2 ft | 6 kts | 30° |
| 2026-05-07 13:18 | 52.29998 | 4.76014 | 2 ft | 7 kts | 49° |
| 2026-05-07 13:18 | 52.30048 | 4.76137 | 2 ft | 17 kts | 58° |
| 2026-05-07 13:18 | 52.30110 | 4.76304 | 2 ft | 17 kts | 58° |
| 2026-05-07 13:19 | 52.30174 | 4.76474 | 2 ft | 18 kts | 58° |
| 2026-05-07 13:19 | 52.30208 | 4.76566 | 2 ft | 0 kts | 58° |
| 2026-05-07 13:19 | 52.30221 | 4.76599 | 2 ft | 11 kts | 58° |
| 2026-05-07 13:19 | 52.30283 | 4.76757 | 2 ft | 0 kts | 37° |
| 2026-05-07 13:20 | 52.30308 | 4.76746 | 2 ft | 3 kts | 331° |
| 2026-05-07 13:20 | 52.30337 | 4.76703 | 2 ft | 13 kts | 300° |
| 2026-05-07 13:20 | 52.30389 | 4.76563 | 2 ft | 14 kts | 321° |
| 2026-05-07 13:20 | 52.30470 | 4.76474 | 2 ft | 13 kts | 328° |
| 2026-05-07 13:21 | 52.30510 | 4.76447 | 2 ft | 4 kts | 14° |
| 2026-05-07 13:21 | 52.30524 | 4.76477 | 2 ft | 4 kts | 61° |
| 2026-05-07 13:21 | 52.30536 | 4.76511 | 2 ft | 0 kts | 60° |
| 2026-05-07 13:21 | 52.30536 | 4.76513 | 2 ft | 0 kts | 60° |